sensor_id;sensor_type;location;lat;lon;timestamp;pressure;altitude;pressure_sealevel;temperature;humidity
3917;BME280;1973;50.518;7.318;2023-02-24T00:01:50;100738.00;;;8.89;100.00
3917;BME280;1973;50.518;7.318;2023-02-24T00:04:19;100727.03;;;8.89;100.00
3917;BME280;1973;50.518;7.318;2023-02-24T00:06:46;100721.53;;;8.89;100.00
3917;BME280;1973;50.518;7.318;2023-02-24T00:09:18;100723.25;;;8.90;100.00
3917;BME280;1973;50.518;7.318;2023-02-24T00:11:51;100720.88;;;8.87;100.00
3917;BME280;1973;50.518;7.318;2023-02-24T00:14:19;100707.59;;;8.84;100.00
3917;BME280;1973;50.518;7.318;2023-02-24T00:16:46;100712.44;;;8.82;100.00
3917;BME280;1973;50.518;7.318;2023-02-24T00:19:17;100722.56;;;8.82;100.00
3917;BME280;1973;50.518;7.318;2023-02-24T00:21:44;100714.94;;;8.77;100.00
3917;BME280;1973;50.518;7.318;2023-02-24T00:24:11;100719.81;;;8.75;100.00
3917;BME280;1973;50.518;7.318;2023-02-24T00:26:39;100718.53;;;8.71;100.00
3917;BME280;1973;50.518;7.318;2023-02-24T00:29:08;100717.03;;;8.68;100.00
3917;BME280;1973;50.518;7.318;2023-02-24T00:31:35;100713.03;;;8.64;100.00
3917;BME280;1973;50.518;7.318;2023-02-24T00:34:05;100707.50;;;8.58;100.00
3917;BME280;1973;50.518;7.318;2023-02-24T00:36:31;100698.19;;;8.52;100.00
3917;BME280;1973;50.518;7.318;2023-02-24T00:39:04;100705.75;;;8.50;100.00
3917;BME280;1973;50.518;7.318;2023-02-24T00:41:42;100701.53;;;8.48;100.00
3917;BME280;1973;50.518;7.318;2023-02-24T00:44:12;100695.00;;;8.49;100.00
3917;BME280;1973;50.518;7.318;2023-02-24T00:46:41;100696.06;;;8.48;100.00
3917;BME280;1973;50.518;7.318;2023-02-24T00:49:12;100701.53;;;8.48;100.00
3917;BME280;1973;50.518;7.318;2023-02-24T00:51:46;100688.00;;;8.46;100.00
3917;BME280;1973;50.518;7.318;2023-02-24T00:54:16;100687.38;;;8.44;100.00
3917;BME280;1973;50.518;7.318;2023-02-24T00:56:44;100687.38;;;8.44;100.00
3917;BME280;1973;50.518;7.318;2023-02-24T00:59:13;100684.03;;;8.42;100.00
3917;BME280;1973;50.518;7.318;2023-02-24T01:01:41;100682.50;;;8.40;100.00
3917;BME280;1973;50.518;7.318;2023-02-24T01:04:09;100679.31;;;8.36;100.00
3917;BME280;1973;50.518;7.318;2023-02-24T01:06:42;100679.56;;;8.35;100.00
3917;BME280;1973;50.518;7.318;2023-02-24T01:09:11;100673.81;;;8.29;100.00
3917;BME280;1973;50.518;7.318;2023-02-24T01:11:40;100670.81;;;8.24;100.00
3917;BME280;1973;50.518;7.318;2023-02-24T01:14:28;100664.25;;;8.19;100.00
3917;BME280;1973;50.518;7.318;2023-02-24T01:16:56;100652.84;;;8.15;100.00
3917;BME280;1973;50.518;7.318;2023-02-24T01:19:26;100648.81;;;8.11;100.00
3917;BME280;1973;50.518;7.318;2023-02-24T01:22:01;100650.69;;;8.04;100.00
3917;BME280;1973;50.518;7.318;2023-02-24T01:24:31;100655.28;;;7.97;100.00
3917;BME280;1973;50.518;7.318;2023-02-24T01:26:58;100647.03;;;7.91;100.00
3917;BME280;1973;50.518;7.318;2023-02-24T01:29:25;100644.03;;;7.86;100.00
3917;BME280;1973;50.518;7.318;2023-02-24T01:31:52;100633.66;;;7.81;100.00
3917;BME280;1973;50.518;7.318;2023-02-24T01:34:26;100639.56;;;7.78;100.00
3917;BME280;1973;50.518;7.318;2023-02-24T01:36:53;100630.22;;;7.72;100.00
3917;BME280;1973;50.518;7.318;2023-02-24T01:39:20;100627.06;;;7.69;100.00
3917;BME280;1973;50.518;7.318;2023-02-24T01:41:48;100630.19;;;7.66;100.00
3917;BME280;1973;50.518;7.318;2023-02-24T01:46:50;100623.19;;;7.57;100.00
3917;BME280;1973;50.518;7.318;2023-02-24T01:49:20;100622.94;;;7.52;100.00
3917;BME280;1973;50.518;7.318;2023-02-24T01:51:54;100620.16;;;7.45;100.00
3917;BME280;1973;50.518;7.318;2023-02-24T01:54:25;100615.69;;;7.38;100.00
3917;BME280;1973;50.518;7.318;2023-02-24T01:56:55;100613.75;;;7.31;100.00
3917;BME280;1973;50.518;7.318;2023-02-24T01:59:25;100613.28;;;7.28;100.00
3917;BME280;1973;50.518;7.318;2023-02-24T02:01:56;100612.00;;;7.24;100.00
3917;BME280;1973;50.518;7.318;2023-02-24T02:04:33;100611.56;;;7.20;100.00
3917;BME280;1973;50.518;7.318;2023-02-24T02:07:00;100608.81;;;7.20;100.00
3917;BME280;1973;50.518;7.318;2023-02-24T02:09:28;100604.38;;;7.19;100.00
3917;BME280;1973;50.518;7.318;2023-02-24T02:11:54;100606.28;;;7.19;100.00
3917;BME280;1973;50.518;7.318;2023-02-24T02:14:24;100605.41;;;7.18;100.00
3917;BME280;1973;50.518;7.318;2023-02-24T02:17:24;100605.81;;;7.15;100.00
3917;BME280;1973;50.518;7.318;2023-02-24T02:38:52;100596.84;;;7.00;100.00
3917;BME280;1973;50.518;7.318;2023-02-24T02:44:06;100592.22;;;7.01;100.00
3917;BME280;1973;50.518;7.318;2023-02-24T02:46:48;100598.16;;;7.04;100.00
3917;BME280;1973;50.518;7.318;2023-02-24T02:49:28;100591.44;;;7.07;100.00
3917;BME280;1973;50.518;7.318;2023-02-24T02:52:04;100582.19;;;7.08;100.00
3917;BME280;1973;50.518;7.318;2023-02-24T02:55:16;100580.06;;;7.10;100.00
3917;BME280;1973;50.518;7.318;2023-02-24T02:57:45;100576.13;;;7.12;100.00
3917;BME280;1973;50.518;7.318;2023-02-24T03:00:18;100571.94;;;7.16;100.00
3917;BME280;1973;50.518;7.318;2023-02-24T03:02:56;100563.31;;;7.19;100.00
3917;BME280;1973;50.518;7.318;2023-02-24T03:05:30;100568.78;;;7.19;100.00
3917;BME280;1973;50.518;7.318;2023-02-24T03:07:59;100562.28;;;7.20;100.00
3917;BME280;1973;50.518;7.318;2023-02-24T03:10:30;100559.16;;;7.23;100.00
3917;BME280;1973;50.518;7.318;2023-02-24T03:13:01;100550.53;;;7.26;100.00
3917;BME280;1973;50.518;7.318;2023-02-24T03:15:30;100549.09;;;7.30;100.00
3917;BME280;1973;50.518;7.318;2023-02-24T03:18:05;100536.69;;;7.34;100.00
3917;BME280;1973;50.518;7.318;2023-02-24T03:20:51;100538.78;;;7.39;100.00
3917;BME280;1973;50.518;7.318;2023-02-24T03:23:24;100539.03;;;7.44;100.00
3917;BME280;1973;50.518;7.318;2023-02-24T03:26:02;100528.53;;;7.48;100.00
3917;BME280;1973;50.518;7.318;2023-02-24T03:28:40;100529.81;;;7.52;100.00
3917;BME280;1973;50.518;7.318;2023-02-24T03:31:15;100532.38;;;7.53;100.00
3917;BME280;1973;50.518;7.318;2023-02-24T03:33:53;100519.31;;;7.55;100.00
3917;BME280;1973;50.518;7.318;2023-02-24T03:36:27;100518.69;;;7.60;100.00
3917;BME280;1973;50.518;7.318;2023-02-24T03:38:55;100511.13;;;7.62;100.00
3917;BME280;1973;50.518;7.318;2023-02-24T03:41:29;100509.66;;;7.66;100.00
3917;BME280;1973;50.518;7.318;2023-02-24T03:43:58;100502.94;;;7.68;100.00
3917;BME280;1973;50.518;7.318;2023-02-24T03:46:26;100508.88;;;7.72;100.00
3917;BME280;1973;50.518;7.318;2023-02-24T03:48:58;100510.16;;;7.76;100.00
3917;BME280;1973;50.518;7.318;2023-02-24T03:51:28;100498.13;;;7.77;100.00
3917;BME280;1973;50.518;7.318;2023-02-24T03:54:10;100506.34;;;7.77;100.00
3917;BME280;1973;50.518;7.318;2023-02-24T03:56:58;100501.50;;;7.79;100.00
3917;BME280;1973;50.518;7.318;2023-02-24T03:59:51;100502.13;;;7.81;100.00
3917;BME280;1973;50.518;7.318;2023-02-24T04:02:25;100506.56;;;7.82;100.00
3917;BME280;1973;50.518;7.318;2023-02-24T04:05:07;100499.41;;;7.81;100.00
3917;BME280;1973;50.518;7.318;2023-02-24T04:07:53;100503.19;;;7.80;100.00
3917;BME280;1973;50.518;7.318;2023-02-24T04:10:26;100498.78;;;7.79;100.00
3917;BME280;1973;50.518;7.318;2023-02-24T04:13:00;100504.25;;;7.79;100.00
3917;BME280;1973;50.518;7.318;2023-02-24T04:15:37;100503.59;;;7.77;100.00
3917;BME280;1973;50.518;7.318;2023-02-24T04:18:17;100509.28;;;7.75;100.00
3917;BME280;1973;50.518;7.318;2023-02-24T04:20:46;100508.44;;;7.75;100.00
3917;BME280;1973;50.518;7.318;2023-02-24T04:23:25;100507.78;;;7.73;100.00
3917;BME280;1973;50.518;7.318;2023-02-24T04:25:54;100504.63;;;7.69;100.00
3917;BME280;1973;50.518;7.318;2023-02-24T04:28:22;100499.97;;;7.70;100.00
3917;BME280;1973;50.518;7.318;2023-02-24T04:30:54;100494.50;;;7.70;100.00
3917;BME280;1973;50.518;7.318;2023-02-24T04:33:23;100494.50;;;7.70;100.00
3917;BME280;1973;50.518;7.318;2023-02-24T04:35:50;100498.94;;;7.71;100.00
3917;BME280;1973;50.518;7.318;2023-02-24T04:38:17;100490.91;;;7.69;100.00
3917;BME280;1973;50.518;7.318;2023-02-24T04:40:44;100482.06;;;7.67;100.00
3917;BME280;1973;50.518;7.318;2023-02-24T04:43:10;100480.19;;;7.68;100.00
3917;BME280;1973;50.518;7.318;2023-02-24T04:45:38;100483.34;;;7.65;100.00
3917;BME280;1973;50.518;7.318;2023-02-24T04:48:05;100483.72;;;7.62;100.00
3917;BME280;1973;50.518;7.318;2023-02-24T04:50:40;100487.91;;;7.58;100.00
3917;BME280;1973;50.518;7.318;2023-02-24T04:53:11;100478.22;;;7.55;100.00
3917;BME280;1973;50.518;7.318;2023-02-24T04:55:43;100478.44;;;7.54;100.00
3917;BME280;1973;50.518;7.318;2023-02-24T04:58:19;100476.31;;;7.49;100.00
3917;BME280;1973;50.518;7.318;2023-02-24T05:00:48;100472.72;;;7.49;100.00
3917;BME280;1973;50.518;7.318;2023-02-24T05:03:19;100462.81;;;7.48;100.00
3917;BME280;1973;50.518;7.318;2023-02-24T05:05:54;100464.69;;;7.47;100.00
3917;BME280;1973;50.518;7.318;2023-02-24T05:08:27;100449.34;;;7.46;100.00
3917;BME280;1973;50.518;7.318;2023-02-24T05:10:54;100454.59;;;7.48;100.00
3917;BME280;1973;50.518;7.318;2023-02-24T05:13:24;100454.59;;;7.48;100.00
3917;BME280;1973;50.518;7.318;2023-02-24T05:15:54;100457.13;;;7.49;100.00
3917;BME280;1973;50.518;7.318;2023-02-24T05:18:21;100454.41;;;7.49;100.00
3917;BME280;1973;50.518;7.318;2023-02-24T05:20:52;100441.56;;;7.50;100.00
3917;BME280;1973;50.518;7.318;2023-02-24T05:23:41;100445.31;;;7.49;100.00
3917;BME280;1973;50.518;7.318;2023-02-24T05:26:13;100451.44;;;7.51;100.00
3917;BME280;1973;50.518;7.318;2023-02-24T05:28:44;100449.75;;;7.50;100.00
3917;BME280;1973;50.518;7.318;2023-02-24T05:31:16;100448.91;;;7.49;100.00
3917;BME280;1973;50.518;7.318;2023-02-24T05:33:47;100441.56;;;7.50;100.00
3917;BME280;1973;50.518;7.318;2023-02-24T05:36:17;100449.34;;;7.46;100.00
3917;BME280;1973;50.518;7.318;2023-02-24T05:38:45;100452.25;;;7.45;100.00
3917;BME280;1973;50.518;7.318;2023-02-24T05:41:15;100445.09;;;7.44;100.00
3917;BME280;1973;50.518;7.318;2023-02-24T05:43:48;100441.50;;;7.43;100.00
3917;BME280;1973;50.518;7.318;2023-02-24T05:46:21;100440.84;;;7.34;100.00
3917;BME280;1973;50.518;7.318;2023-02-24T05:48:55;100438.53;;;7.31;100.00
3917;BME280;1973;50.518;7.318;2023-02-24T05:51:26;100442.72;;;7.27;100.00
3917;BME280;1973;50.518;7.318;2023-02-24T05:54:04;100445.00;;;7.24;100.00
3917;BME280;1973;50.518;7.318;2023-02-24T05:56:33;100437.84;;;7.23;100.00
3917;BME280;1973;50.518;7.318;2023-02-24T05:59:02;100431.94;;;7.19;100.00
3917;BME280;1973;50.518;7.318;2023-02-24T06:01:30;100431.50;;;7.22;100.00
3917;BME280;1973;50.518;7.318;2023-02-24T06:03:59;100430.25;;;7.25;100.00
3917;BME280;1973;50.518;7.318;2023-02-24T06:06:41;100435.31;;;7.28;100.00
3917;BME280;1973;50.518;7.318;2023-02-24T06:09:10;100428.59;;;7.30;100.00
3917;BME280;1973;50.518;7.318;2023-02-24T06:11:41;100427.56;;;7.31;100.00
3917;BME280;1973;50.518;7.318;2023-02-24T06:14:09;100427.56;;;7.31;100.00
3917;BME280;1973;50.518;7.318;2023-02-24T06:16:39;100437.44;;;7.32;100.00
3917;BME280;1973;50.518;7.318;2023-02-24T06:19:08;100435.13;;;7.29;100.00
3917;BME280;1973;50.518;7.318;2023-02-24T06:21:37;100431.34;;;7.30;100.00
3917;BME280;1973;50.518;7.318;2023-02-24T06:24:10;100432.38;;;7.29;100.00
3917;BME280;1973;50.518;7.318;2023-02-24T06:26:41;100430.47;;;7.23;100.00
3917;BME280;1973;50.518;7.318;2023-02-24T06:29:16;100429.81;;;7.21;100.00
3917;BME280;1973;50.518;7.318;2023-02-24T06:31:43;100442.03;;;7.19;100.00
3917;BME280;1973;50.518;7.318;2023-02-24T06:34:11;100428.34;;;7.19;100.00
3917;BME280;1973;50.518;7.318;2023-02-24T06:36:39;100426.63;;;7.18;100.00
3917;BME280;1973;50.518;7.318;2023-02-24T06:39:05;100437.81;;;7.16;100.00
3917;BME280;1973;50.518;7.318;2023-02-24T06:41:39;100430.22;;;7.18;100.00
3917;BME280;1973;50.518;7.318;2023-02-24T06:44:05;100434.41;;;7.14;100.00
3917;BME280;1973;50.518;7.318;2023-02-24T06:46:32;100437.56;;;7.11;100.00
3917;BME280;1973;50.518;7.318;2023-02-24T06:48:58;100421.75;;;7.13;100.00
3917;BME280;1973;50.518;7.318;2023-02-24T06:51:25;100425.75;;;7.11;100.00
3917;BME280;1973;50.518;7.318;2023-02-24T06:53:56;100425.97;;;7.09;100.00
3917;BME280;1973;50.518;7.318;2023-02-24T06:56:25;100435.84;;;7.10;100.00
3917;BME280;1973;50.518;7.318;2023-02-24T06:58:54;100429.34;;;7.11;100.00
3917;BME280;1973;50.518;7.318;2023-02-24T07:01:23;100423.88;;;7.11;100.00
3917;BME280;1973;50.518;7.318;2023-02-24T07:03:56;100426.41;;;7.13;100.00
3917;BME280;1973;50.518;7.318;2023-02-24T07:06:46;100423.47;;;7.14;100.00
3917;BME280;1973;50.518;7.318;2023-02-24T07:09:16;100424.31;;;7.15;100.00
3917;BME280;1973;50.518;7.318;2023-02-24T07:11:45;100422.19;;;7.17;100.00
3917;BME280;1973;50.518;7.318;2023-02-24T07:14:13;100422.00;;;7.18;100.00
3917;BME280;1973;50.518;7.318;2023-02-24T07:16:40;100421.81;;;7.20;100.00
3917;BME280;1973;50.518;7.318;2023-02-24T07:19:12;100424.34;;;7.21;100.00
3917;BME280;1973;50.518;7.318;2023-02-24T07:21:41;100416.78;;;7.23;100.00
3917;BME280;1973;50.518;7.318;2023-02-24T07:24:19;100419.53;;;7.23;100.00
3917;BME280;1973;50.518;7.318;2023-02-24T07:27:00;100418.44;;;7.24;100.00
3917;BME280;1973;50.518;7.318;2023-02-24T07:29:29;100419.53;;;7.23;100.00
3917;BME280;1973;50.518;7.318;2023-02-24T07:32:00;100415.53;;;7.26;100.00
3917;BME280;1973;50.518;7.318;2023-02-24T07:34:29;100406.47;;;7.25;100.00
3917;BME280;1973;50.518;7.318;2023-02-24T07:36:56;100404.56;;;7.26;100.00
3917;BME280;1973;50.518;7.318;2023-02-24T07:39:23;100400.78;;;7.27;100.00
3917;BME280;1973;50.518;7.318;2023-02-24T07:41:51;100408.41;;;7.31;100.00
3917;BME280;1973;50.518;7.318;2023-02-24T07:44:21;100406.47;;;7.32;100.00
3917;BME280;1973;50.518;7.318;2023-02-24T07:46:50;100410.06;;;7.32;100.00
3917;BME280;1973;50.518;7.318;2023-02-24T07:49:19;100401.44;;;7.35;100.00
3917;BME280;1973;50.518;7.318;2023-02-24T07:51:47;100395.16;;;7.35;100.00
3917;BME280;1973;50.518;7.318;2023-02-24T07:54:22;100392.59;;;7.33;100.00
3917;BME280;1973;50.518;7.318;2023-02-24T07:56:50;100387.97;;;7.34;100.00
3917;BME280;1973;50.518;7.318;2023-02-24T07:59:28;100397.66;;;7.30;100.00
3917;BME280;1973;50.518;7.318;2023-02-24T08:01:56;100394.06;;;7.29;100.00
3917;BME280;1973;50.518;7.318;2023-02-24T08:04:27;100390.28;;;7.30;100.00
3917;BME280;1973;50.518;7.318;2023-02-24T08:06:56;100390.28;;;7.30;100.00
3917;BME280;1973;50.518;7.318;2023-02-24T08:09:27;100384.38;;;7.33;100.00
3917;BME280;1973;50.518;7.318;2023-02-24T08:12:32;100380.59;;;7.34;100.00
3917;BME280;1973;50.518;7.318;2023-02-24T08:15:00;100376.59;;;7.37;100.00
3917;BME280;1973;50.518;7.318;2023-02-24T08:17:34;100370.09;;;7.38;100.00
3917;BME280;1973;50.518;7.318;2023-02-24T08:20:00;100367.13;;;7.40;100.00
3917;BME280;1973;50.518;7.318;2023-02-24T08:22:40;100366.69;;;7.36;100.00
3917;BME280;1973;50.518;7.318;2023-02-24T08:25:13;100373.44;;;7.33;100.00
3917;BME280;1973;50.518;7.318;2023-02-24T08:27:50;100370.69;;;7.33;100.00
3917;BME280;1973;50.518;7.318;2023-02-24T08:30:34;100363.69;;;7.24;100.00
3917;BME280;1973;50.518;7.318;2023-02-24T08:33:09;100356.56;;;7.23;100.00
3917;BME280;1973;50.518;7.318;2023-02-24T08:35:38;100348.13;;;7.25;100.00
3917;BME280;1973;50.518;7.318;2023-02-24T08:38:15;100347.09;;;7.26;100.00
3917;BME280;1973;50.518;7.318;2023-02-24T08:40:46;100347.28;;;7.24;100.00
3917;BME280;1973;50.518;7.318;2023-02-24T08:43:22;100345.19;;;7.26;100.00
3917;BME280;1973;50.518;7.318;2023-02-24T08:48:51;100332.13;;;7.28;100.00
3917;BME280;1973;50.518;7.318;2023-02-24T08:51:25;100332.16;;;7.35;100.00
3917;BME280;1973;50.518;7.318;2023-02-24T08:53:57;100326.72;;;7.42;100.00
3917;BME280;1973;50.518;7.318;2023-02-24T08:56:26;100325.88;;;7.48;100.00
3917;BME280;1973;50.518;7.318;2023-02-24T08:58:56;100326.72;;;7.55;100.00
3917;BME280;1973;50.518;7.318;2023-02-24T09:01:28;100320.00;;;7.57;100.00
3917;BME280;1973;50.518;7.318;2023-02-24T09:04:03;100307.16;;;7.64;100.00
3917;BME280;1973;50.518;7.318;2023-02-24T09:06:41;100312.84;;;7.69;100.00
3917;BME280;1973;50.518;7.318;2023-02-24T09:09:13;100309.91;;;7.71;100.00
3917;BME280;1973;50.518;7.318;2023-02-24T09:11:52;100308.44;;;7.75;100.00
3917;BME280;1973;50.518;7.318;2023-02-24T09:14:27;100301.69;;;7.77;100.00
3917;BME280;1973;50.518;7.318;2023-02-24T09:16:57;100293.03;;;7.80;100.00
3917;BME280;1973;50.518;7.318;2023-02-24T09:22:08;100277.03;;;7.91;100.00
3917;BME280;1973;50.518;7.318;2023-02-24T09:24:53;100273.22;;;7.98;100.00
3917;BME280;1973;50.518;7.318;2023-02-24T09:27:40;100273.44;;;8.03;100.00
3917;BME280;1973;50.518;7.318;2023-02-24T09:30:10;100275.31;;;8.09;100.00
3917;BME280;1973;50.518;7.318;2023-02-24T09:32:56;100265.63;;;8.13;100.00
3917;BME280;1973;50.518;7.318;2023-02-24T09:35:27;100265.22;;;8.16;100.00
3917;BME280;1973;50.518;7.318;2023-02-24T09:37:57;100254.00;;;8.18;100.00
3917;BME280;1973;50.518;7.318;2023-02-24T09:40:26;100246.84;;;8.23;100.00
3917;BME280;1973;50.518;7.318;2023-02-24T09:43:19;100243.28;;;8.29;100.00
3917;BME280;1973;50.518;7.318;2023-02-24T09:45:58;100239.47;;;8.30;100.00
3917;BME280;1973;50.518;7.318;2023-02-24T09:48:32;100242.84;;;8.32;100.00
3917;BME280;1973;50.518;7.318;2023-02-24T09:51:13;100246.22;;;8.35;100.00
3917;BME280;1973;50.518;7.318;2023-02-24T09:53:50;100235.44;;;8.33;100.00
3917;BME280;1973;50.518;7.318;2023-02-24T09:56:33;100236.91;;;8.36;100.00
3917;BME280;1973;50.518;7.318;2023-02-24T09:59:35;100229.09;;;8.39;100.00
3917;BME280;1973;50.518;7.318;2023-02-24T10:02:23;100220.88;;;8.46;100.00
3917;BME280;1973;50.518;7.318;2023-02-24T10:05:23;100217.47;;;8.44;100.00
3917;BME280;1973;50.518;7.318;2023-02-24T10:07:54;100210.53;;;8.41;100.00
3917;BME280;1973;50.518;7.318;2023-02-24T10:10:25;100213.69;;;8.45;100.00
3917;BME280;1973;50.518;7.318;2023-02-24T10:13:16;100206.75;;;8.36;100.00
3917;BME280;1973;50.518;7.318;2023-02-24T10:15:57;100211.63;;;8.34;100.00
3917;BME280;1973;50.518;7.318;2023-02-24T10:18:54;100206.97;;;8.34;100.00
3917;BME280;1973;50.518;7.318;2023-02-24T10:21:32;100199.81;;;8.26;100.00
3917;BME280;1973;50.518;7.318;2023-02-24T10:24:28;100210.78;;;8.26;100.00
3917;BME280;1973;50.518;7.318;2023-02-24T10:27:02;100201.09;;;8.30;100.00
3917;BME280;1973;50.518;7.318;2023-02-24T10:35:19;100195.13;;;8.40;100.00
3917;BME280;1973;50.518;7.318;2023-02-24T10:37:47;100195.53;;;8.44;100.00
3917;BME280;1973;50.518;7.318;2023-02-24T10:40:15;100186.88;;;8.47;100.00
3917;BME280;1973;50.518;7.318;2023-02-24T10:43:18;100187.53;;;8.49;100.00
3917;BME280;1973;50.518;7.318;2023-02-24T10:45:57;100177.75;;;8.59;100.00
3917;BME280;1973;50.518;7.318;2023-02-24T10:48:33;100177.75;;;8.59;100.00
3917;BME280;1973;50.518;7.318;2023-02-24T10:51:16;100166.78;;;8.59;100.00
3917;BME280;1973;50.518;7.318;2023-02-24T10:54:13;100167.81;;;8.65;100.00
3917;BME280;1973;50.518;7.318;2023-02-24T10:57:12;100164.66;;;8.68;100.00
3917;BME280;1973;50.518;7.318;2023-02-24T11:00:13;100149.84;;;8.69;100.00
3917;BME280;1973;50.518;7.318;2023-02-24T11:03:06;100161.22;;;8.79;100.00
3917;BME280;1973;50.518;7.318;2023-02-24T11:05:41;100155.47;;;8.80;100.00
3917;BME280;1973;50.518;7.318;2023-02-24T11:08:35;100151.88;;;8.80;100.00
3917;BME280;1973;50.518;7.318;2023-02-24T11:11:15;100140.25;;;8.85;100.00
3917;BME280;1973;50.518;7.318;2023-02-24T11:13:52;100137.88;;;8.95;100.00
3917;BME280;1973;50.518;7.318;2023-02-24T11:16:49;100143.28;;;9.08;100.00
3917;BME280;1973;50.518;7.318;2023-02-24T11:19:43;100128.59;;;9.20;100.00
3917;BME280;1973;50.518;7.318;2023-02-24T11:22:20;100124.59;;;9.23;100.00
3917;BME280;1973;50.518;7.318;2023-02-24T11:24:47;100120.72;;;9.31;100.00
3917;BME280;1973;50.518;7.318;2023-02-24T11:27:17;100113.06;;;9.33;100.00
3917;BME280;1973;50.518;7.318;2023-02-24T11:32:37;100098.56;;;9.25;100.00
3917;BME280;1973;50.518;7.318;2023-02-24T11:35:41;100102.59;;;9.23;100.00
3917;BME280;1973;50.518;7.318;2023-02-24T11:38:37;100093.53;;;9.22;100.00
3917;BME280;1973;50.518;7.318;2023-02-24T11:41:21;100078.78;;;9.17;100.00
3917;BME280;1973;50.518;7.318;2023-02-24T11:43:56;100078.06;;;9.03;100.00
3917;BME280;1973;50.518;7.318;2023-02-24T11:46:36;100057.97;;;9.03;100.00
3917;BME280;1973;50.518;7.318;2023-02-24T11:49:16;100064.59;;;8.95;100.00
3917;BME280;1973;50.518;7.318;2023-02-24T11:51:47;100047.84;;;9.03;100.00
3917;BME280;1973;50.518;7.318;2023-02-24T11:54:15;100054.47;;;8.96;100.00
3917;BME280;1973;50.518;7.318;2023-02-24T11:57:02;100054.56;;;9.07;100.00
3917;BME280;1973;50.518;7.318;2023-02-24T11:59:38;100042.69;;;9.13;100.00
3917;BME280;1973;50.518;7.318;2023-02-24T12:05:10;100036.81;;;9.10;100.00
3917;BME280;1973;50.518;7.318;2023-02-24T12:07:41;100030.72;;;9.08;100.00
3917;BME280;1973;50.518;7.318;2023-02-24T12:10:19;100031.31;;;9.10;100.00
3917;BME280;1973;50.518;7.318;2023-02-24T12:18:33;100009.06;;;9.18;100.00
3917;BME280;1973;50.518;7.318;2023-02-24T12:23:51;100015.84;;;9.15;100.00
3917;BME280;1973;50.518;7.318;2023-02-24T12:29:03;100007.84;;;9.14;100.00
3917;BME280;1973;50.518;7.318;2023-02-24T12:34:25;99996.31;;;9.05;100.00
3917;BME280;1973;50.518;7.318;2023-02-24T12:45:22;99976.16;;;8.93;100.00
3917;BME280;1973;50.518;7.318;2023-02-24T12:53:39;99963.94;;;8.89;100.00
3917;BME280;1973;50.518;7.318;2023-02-24T12:56:20;99970.28;;;8.90;100.00
3917;BME280;1973;50.518;7.318;2023-02-24T12:58:51;99961.94;;;8.78;100.00
3917;BME280;1973;50.518;7.318;2023-02-24T13:01:35;99954.75;;;8.77;100.00
3917;BME280;1973;50.518;7.318;2023-02-24T13:04:23;99946.81;;;8.69;100.00
3917;BME280;1973;50.518;7.318;2023-02-24T13:07:30;99938.03;;;8.60;100.00
3917;BME280;1973;50.518;7.318;2023-02-24T13:10:15;99935.56;;;8.52;100.00
3917;BME280;1973;50.518;7.318;2023-02-24T13:12:56;99933.47;;;8.48;100.00
3917;BME280;1973;50.518;7.318;2023-02-24T13:15:28;99926.56;;;8.45;100.00
3917;BME280;1973;50.518;7.318;2023-02-24T13:17:57;99920.28;;;8.38;100.00
3917;BME280;1973;50.518;7.318;2023-02-24T13:20:33;99920.88;;;8.40;100.00
3917;BME280;1973;50.518;7.318;2023-02-24T13:23:03;99917.53;;;8.38;100.00
3917;BME280;1973;50.518;7.318;2023-02-24T13:25:49;99914.81;;;8.38;100.00
3917;BME280;1973;50.518;7.318;2023-02-24T13:33:41;99907.56;;;8.44;100.00
3917;BME280;1973;50.518;7.318;2023-02-24T13:36:18;99907.34;;;8.45;100.00
3917;BME280;1973;50.518;7.318;2023-02-24T13:38:50;99906.50;;;8.45;100.00
3917;BME280;1973;50.518;7.318;2023-02-24T13:43:57;99896.44;;;8.39;100.00
3917;BME280;1973;50.518;7.318;2023-02-24T13:46:27;99892.28;;;8.29;100.00
3917;BME280;1973;50.518;7.318;2023-02-24T13:49:03;99900.31;;;8.24;100.00
3917;BME280;1973;50.518;7.318;2023-02-24T14:02:28;99890.22;;;8.18;100.00
3917;BME280;1973;50.518;7.318;2023-02-24T14:04:58;99885.19;;;8.15;100.00
3917;BME280;1973;50.518;7.318;2023-02-24T14:07:31;99881.41;;;8.16;100.00
3917;BME280;1973;50.518;7.318;2023-02-24T14:10:03;99886.50;;;8.13;100.00
3917;BME280;1973;50.518;7.318;2023-02-24T14:12:33;99886.91;;;8.10;100.00
3917;BME280;1973;50.518;7.318;2023-02-24T14:15:01;99886.06;;;8.09;100.00
3917;BME280;1973;50.518;7.318;2023-02-24T14:17:35;99878.94;;;8.08;100.00
3917;BME280;1973;50.518;7.318;2023-02-24T14:22:42;99873.91;;;8.05;100.00
3917;BME280;1973;50.518;7.318;2023-02-24T14:25:11;99868.84;;;8.02;100.00
3917;BME280;1973;50.518;7.318;2023-02-24T14:27:38;99869.28;;;7.99;100.00
3917;BME280;1973;50.518;7.318;2023-02-24T14:30:06;99867.59;;;7.98;100.00
3917;BME280;1973;50.518;7.318;2023-02-24T14:32:33;99865.16;;;7.90;100.00
3917;BME280;1973;50.518;7.318;2023-02-24T14:35:00;99856.53;;;7.87;100.00
3917;BME280;1973;50.518;7.318;2023-02-24T14:37:29;99850.03;;;7.81;100.00
3917;BME280;1973;50.518;7.318;2023-02-24T14:39:58;99860.13;;;7.80;100.00
3917;BME280;1973;50.518;7.318;2023-02-24T14:42:26;99861.22;;;7.79;100.00
3917;BME280;1973;50.518;7.318;2023-02-24T14:44:55;99850.47;;;7.78;100.00
3917;BME280;1973;50.518;7.318;2023-02-24T14:47:24;99852.81;;;7.74;100.00
3917;BME280;1973;50.518;7.318;2023-02-24T14:49:55;99855.75;;;7.73;100.00
3917;BME280;1973;50.518;7.318;2023-02-24T14:52:39;99861.09;;;7.68;100.00
3917;BME280;1973;50.518;7.318;2023-02-24T14:57:48;99845.91;;;7.65;100.00
3917;BME280;1973;50.518;7.318;2023-02-24T15:00:19;99842.16;;;7.60;100.00
3917;BME280;1973;50.518;7.318;2023-02-24T15:02:55;99846.59;;;7.61;100.00
3917;BME280;1973;50.518;7.318;2023-02-24T15:05:23;99845.94;;;7.59;100.00
3917;BME280;1973;50.518;7.318;2023-02-24T15:07:50;99840.72;;;7.57;100.00
3917;BME280;1973;50.518;7.318;2023-02-24T15:10:23;99837.97;;;7.57;100.00
3917;BME280;1973;50.518;7.318;2023-02-24T15:12:54;99826.38;;;7.55;100.00
3917;BME280;1973;50.518;7.318;2023-02-24T15:15:28;99832.31;;;7.52;100.00
3917;BME280;1973;50.518;7.318;2023-02-24T15:17:59;99828.72;;;7.52;100.00
3917;BME280;1973;50.518;7.318;2023-02-24T15:20:37;99828.13;;;7.50;100.00
3917;BME280;1973;50.518;7.318;2023-02-24T15:23:23;99825.19;;;7.45;100.00